This is the latest recevied weather packets stored in our database for station/object NO3U. If no packets are shown the sender has not sent any weather packets the latest 10 day(s).
| Time | Temp. | Humidity | Pressure | Rain* | Wind** | Luminosity | Snow |
|---|---|---|---|---|---|---|---|
| 1777921064 | 22.22° C | 48% | 1007.9 hPa | 0 mm | - | 296 W/m² | - |
| 1777920761 | 21.11° C | 49% | 1008.2 hPa | 0 mm | - | 781 W/m² | - |
| 1777920457 | 21.67° C | 47% | 1008 hPa | 0 mm | - | 178 W/m² | - |
| 1777920153 | 21.11° C | 49% | 1008.3 hPa | 0 mm | - | 542 W/m² | - |
| 1777919849 | 21.67° C | 49% | 1008.2 hPa | 0 mm | - | 678 W/m² | - |
| 1777919546 | 21.11° C | 48% | 1008.3 hPa | 0 mm | - | 588 W/m² | - |
| 1777919244 | 21.67° C | 48% | 1008.5 hPa | 0 mm | - | 205 W/m² | - |
| 1777918941 | 21.67° C | 49% | 1008.6 hPa | 0 mm | - | 692 W/m² | - |
| 1777918639 | 22.22° C | 46% | 1008.4 hPa | 0 mm | - | 167 W/m² | - |
| 1777918336 | 21.67° C | 47% | 1008.3 hPa | 0 mm | - | 154 W/m² | - |
| 1777918035 | 21.67° C | 48% | 1008.6 hPa | 0 mm | - | 176 W/m² | - |
| 1777917733 | 21.67° C | 48% | 1008.7 hPa | 0 mm | - | 185 W/m² | - |
| 1777917430 | 21.67° C | 49% | 1008.7 hPa | 0 mm | - | 187 W/m² | - |
| 1777917127 | 21.67° C | 46% | 1008.8 hPa | 0 mm | - | 147 W/m² | - |
| 1777916825 | 21.11° C | 47% | 1008.7 hPa | 0 mm | - | 135 W/m² | - |
| 1777916523 | 20.56° C | 48% | 1008.8 hPa | 0 mm | - | 106 W/m² | - |
| 1777916219 | 21.11° C | 46% | 1008.8 hPa | 0 mm | - | 122 W/m² | - |
| 1777915916 | 21.11° C | 50% | 1009.2 hPa | 0 mm | - | 153 W/m² | - |
| 1777915613 | 21.11° C | 48% | 1009 hPa | 0 mm | - | 156 W/m² | - |
| 1777915309 | 20.56° C | 47% | 1008.9 hPa | 0 mm | - | 217 W/m² | - |
| 1777915005 | 20.56° C | 48% | 1009 hPa | 0 mm | - | 172 W/m² | - |
| 1777914703 | 20.56° C | 47% | 1009.1 hPa | 0 mm | - | 104 W/m² | - |
| 1777914399 | 20.56° C | 50% | 1009.3 hPa | 0 mm | - | 74 W/m² | - |
| 1777914097 | 20° C | 47% | 1009.3 hPa | 0 mm | - | 68 W/m² | - |
| 1777913793 | 20.56° C | 47% | 1009.5 hPa | 0 mm | - | 67 W/m² | - |
* Rain latest hour (hover to see other rain measurements)
** Current wind speed in m/s (hover to see current wind gust speed)